Yasny, Russia
Current Conditions -  °F | °C
As of 7:30 AM on Saturday 25 Oct 2014 (Local Time) from UATT Reporting Station
Broken Clouds Broken Clouds  
Wind Chill:   Ceiling: 3500
Heat Index: 16°   Visibility: 6mi
Dew Point: 12°   Wind: 7mph
Humidity: 86%   Direction: 270°W
Pressure: 30.09"   Gusts: NA
Location:  51°N, 59.53°E
Report Text: UATT 250230Z 27003MPS 9999 BKN035 M09/M11 Q1019 R31/CLRD70NOSIG RMK QFE744/0993
Loading
Personal Weather Stations






























Interactive Weather Map
Tropical Storm Tracking
New forecast layout! Learn more

10-Day Weather Forecast

Advertisements
Track Severe Weather on mobile